Iraan, Texas
Current Conditions -  °F | °C
As of 12:15 AM on Monday 22 Dec 2014 (Local Time) from KOZA Reporting Station
Overcast Overcast  
Wind Chill: 50°   Ceiling: 500
Heat Index: 50°   Visibility: 7mi
Dew Point: 46°   Wind: 15mph
Humidity: 87%   Direction: 200°SSW
Pressure: 29.82"   Gusts: 20mph
Location:  30.91°N, 101.9°W
Report Text: KOZA 220615Z AUTO 20013G17KT 7SM OVC005 10/08 A2982 RMK AO2
Loading
Personal Weather Stations






























Interactive Weather Map New forecast layout! Learn more

10-Day Weather Forecast

Advertisements
Track Severe Weather on mobile